sensor_id;sensor_type;location;lat;lon;timestamp;P1;durP1;ratioP1;P2;durP2;ratioP2
8462;SDS011;4268;52.506;13.462;2022-09-03T00:01:22;2.40;;;2.30;;
8462;SDS011;4268;52.506;13.462;2022-09-03T00:03:53;3.30;;;2.30;;
8462;SDS011;4268;52.506;13.462;2022-09-03T00:06:30;2.77;;;2.57;;
8462;SDS011;4268;52.506;13.462;2022-09-03T00:09:19;2.60;;;2.40;;
8462;SDS011;4268;52.506;13.462;2022-09-03T00:11:51;3.10;;;2.90;;
8462;SDS011;4268;52.506;13.462;2022-09-03T00:14:25;2.50;;;2.30;;
8462;SDS011;4268;52.506;13.462;2022-09-03T00:16:59;2.63;;;2.43;;
8462;SDS011;4268;52.506;13.462;2022-09-03T00:19:34;3.20;;;2.40;;
8462;SDS011;4268;52.506;13.462;2022-09-03T00:22:07;2.50;;;2.30;;
8462;SDS011;4268;52.506;13.462;2022-09-03T00:24:37;2.53;;;2.33;;
8462;SDS011;4268;52.506;13.462;2022-09-03T00:27:05;2.43;;;2.30;;
8462;SDS011;4268;52.506;13.462;2022-09-03T00:29:45;2.50;;;2.40;;
8462;SDS011;4268;52.506;13.462;2022-09-03T00:32:18;2.90;;;2.70;;
8462;SDS011;4268;52.506;13.462;2022-09-03T00:34:51;2.70;;;2.50;;
8462;SDS011;4268;52.506;13.462;2022-09-03T00:37:22;4.07;;;2.40;;
8462;SDS011;4268;52.506;13.462;2022-09-03T00:39:47;4.47;;;2.53;;
8462;SDS011;4268;52.506;13.462;2022-09-03T00:42:29;2.77;;;2.53;;
8462;SDS011;4268;52.506;13.462;2022-09-03T00:45:10;2.77;;;2.40;;
8462;SDS011;4268;52.506;13.462;2022-09-03T00:48:04;3.83;;;2.60;;
8462;SDS011;4268;52.506;13.462;2022-09-03T00:50:55;5.57;;;2.80;;
8462;SDS011;4268;52.506;13.462;2022-09-03T00:53:28;2.67;;;2.47;;
8462;SDS011;4268;52.506;13.462;2022-09-03T00:55:57;2.63;;;2.47;;
8462;SDS011;4268;52.506;13.462;2022-09-03T00:59:16;2.70;;;2.50;;
8462;SDS011;4268;52.506;13.462;2022-09-03T01:04:27;2.40;;;2.30;;
8462;SDS011;4268;52.506;13.462;2022-09-03T01:13:06;3.07;;;2.40;;
8462;SDS011;4268;52.506;13.462;2022-09-03T01:24:24;2.70;;;2.33;;
8462;SDS011;4268;52.506;13.462;2022-09-03T01:30:16;2.67;;;2.47;;
8462;SDS011;4268;52.506;13.462;2022-09-03T01:35:28;2.30;;;2.20;;
8462;SDS011;4268;52.506;13.462;2022-09-03T01:44:01;2.53;;;2.37;;
8462;SDS011;4268;52.506;13.462;2022-09-03T01:52:55;2.80;;;2.40;;
8462;SDS011;4268;52.506;13.462;2022-09-03T01:55:53;2.60;;;2.40;;
8462;SDS011;4268;52.506;13.462;2022-09-03T01:58:28;2.40;;;2.20;;
8462;SDS011;4268;52.506;13.462;2022-09-03T02:01:00;2.20;;;2.10;;
8462;SDS011;4268;52.506;13.462;2022-09-03T02:03:32;2.70;;;2.43;;
8462;SDS011;4268;52.506;13.462;2022-09-03T02:06:02;2.20;;;2.10;;
8462;SDS011;4268;52.506;13.462;2022-09-03T02:08:29;2.77;;;2.60;;
8462;SDS011;4268;52.506;13.462;2022-09-03T02:10:55;2.33;;;2.23;;
8462;SDS011;4268;52.506;13.462;2022-09-03T02:13:35;2.63;;;2.43;;
8462;SDS011;4268;52.506;13.462;2022-09-03T02:16:13;2.50;;;2.30;;
8462;SDS011;4268;52.506;13.462;2022-09-03T02:18:50;3.40;;;2.53;;
8462;SDS011;4268;52.506;13.462;2022-09-03T02:21:30;2.80;;;2.60;;
8462;SDS011;4268;52.506;13.462;2022-09-03T02:23:58;2.70;;;2.50;;
8462;SDS011;4268;52.506;13.462;2022-09-03T02:26:24;2.57;;;2.47;;
8462;SDS011;4268;52.506;13.462;2022-09-03T02:28:50;2.70;;;2.50;;
8462;SDS011;4268;52.506;13.462;2022-09-03T02:31:18;3.03;;;2.70;;
8462;SDS011;4268;52.506;13.462;2022-09-03T02:33:45;2.47;;;2.37;;
8462;SDS011;4268;52.506;13.462;2022-09-03T02:36:14;2.60;;;2.40;;
8462;SDS011;4268;52.506;13.462;2022-09-03T02:38:43;3.00;;;2.80;;
8462;SDS011;4268;52.506;13.462;2022-09-03T02:41:09;3.67;;;2.90;;
8462;SDS011;4268;52.506;13.462;2022-09-03T02:43:57;3.93;;;3.10;;
8462;SDS011;4268;52.506;13.462;2022-09-03T02:46:51;2.47;;;2.37;;
8462;SDS011;4268;52.506;13.462;2022-09-03T02:49:20;2.60;;;2.40;;
8462;SDS011;4268;52.506;13.462;2022-09-03T02:51:46;3.23;;;2.57;;
8462;SDS011;4268;52.506;13.462;2022-09-03T02:54:12;2.63;;;2.47;;
8462;SDS011;4268;52.506;13.462;2022-09-03T02:56:37;2.43;;;2.17;;
8462;SDS011;4268;52.506;13.462;2022-09-03T02:59:04;2.60;;;2.40;;
8462;SDS011;4268;52.506;13.462;2022-09-03T03:01:30;2.77;;;2.57;;
8462;SDS011;4268;52.506;13.462;2022-09-03T03:03:56;2.90;;;2.70;;
8462;SDS011;4268;52.506;13.462;2022-09-03T03:06:22;2.97;;;2.60;;
8462;SDS011;4268;52.506;13.462;2022-09-03T03:08:48;2.60;;;2.40;;
8462;SDS011;4268;52.506;13.462;2022-09-03T03:11:14;2.70;;;2.50;;
8462;SDS011;4268;52.506;13.462;2022-09-03T03:13:42;2.53;;;2.43;;
8462;SDS011;4268;52.506;13.462;2022-09-03T03:16:09;2.67;;;2.50;;
8462;SDS011;4268;52.506;13.462;2022-09-03T03:18:35;3.00;;;2.30;;
8462;SDS011;4268;52.506;13.462;2022-09-03T03:21:10;3.73;;;2.60;;
8462;SDS011;4268;52.506;13.462;2022-09-03T03:23:37;2.73;;;2.53;;
8462;SDS011;4268;52.506;13.462;2022-09-03T03:26:04;2.70;;;2.50;;
8462;SDS011;4268;52.506;13.462;2022-09-03T03:28:31;2.80;;;2.60;;
8462;SDS011;4268;52.506;13.462;2022-09-03T03:30:58;3.20;;;2.70;;
8462;SDS011;4268;52.506;13.462;2022-09-03T03:33:31;2.87;;;2.60;;
8462;SDS011;4268;52.506;13.462;2022-09-03T03:35:57;3.20;;;2.60;;
8462;SDS011;4268;52.506;13.462;2022-09-03T03:38:22;2.67;;;2.43;;
8462;SDS011;4268;52.506;13.462;2022-09-03T03:40:48;2.87;;;2.67;;
8462;SDS011;4268;52.506;13.462;2022-09-03T03:43:13;2.70;;;2.50;;
8462;SDS011;4268;52.506;13.462;2022-09-03T03:48:09;3.27;;;2.90;;
8462;SDS011;4268;52.506;13.462;2022-09-03T03:50:35;2.77;;;2.57;;
8462;SDS011;4268;52.506;13.462;2022-09-03T03:53:01;2.90;;;2.70;;
8462;SDS011;4268;52.506;13.462;2022-09-03T03:55:27;3.30;;;3.10;;
8462;SDS011;4268;52.506;13.462;2022-09-03T03:57:52;3.00;;;2.70;;
8462;SDS011;4268;52.506;13.462;2022-09-03T04:00:18;2.80;;;2.60;;
8462;SDS011;4268;52.506;13.462;2022-09-03T04:02:43;2.83;;;2.60;;
8462;SDS011;4268;52.506;13.462;2022-09-03T04:05:09;3.27;;;2.80;;
8462;SDS011;4268;52.506;13.462;2022-09-03T04:07:35;3.27;;;2.97;;
8462;SDS011;4268;52.506;13.462;2022-09-03T04:10:00;2.97;;;2.60;;
8462;SDS011;4268;52.506;13.462;2022-09-03T04:12:26;3.00;;;2.80;;
8462;SDS011;4268;52.506;13.462;2022-09-03T04:14:51;2.87;;;2.70;;
8462;SDS011;4268;52.506;13.462;2022-09-03T04:17:17;2.93;;;2.70;;
8462;SDS011;4268;52.506;13.462;2022-09-03T04:19:42;3.30;;;2.90;;
8462;SDS011;4268;52.506;13.462;2022-09-03T04:22:09;3.00;;;2.80;;
8462;SDS011;4268;52.506;13.462;2022-09-03T04:24:36;2.90;;;2.70;;
8462;SDS011;4268;52.506;13.462;2022-09-03T04:27:01;3.03;;;2.80;;
8462;SDS011;4268;52.506;13.462;2022-09-03T04:29:27;3.23;;;2.97;;
8462;SDS011;4268;52.506;13.462;2022-09-03T04:31:54;3.10;;;2.90;;
8462;SDS011;4268;52.506;13.462;2022-09-03T04:34:38;3.37;;;3.07;;
8462;SDS011;4268;52.506;13.462;2022-09-03T04:37:04;3.03;;;2.73;;
8462;SDS011;4268;52.506;13.462;2022-09-03T04:39:29;3.30;;;3.00;;
8462;SDS011;4268;52.506;13.462;2022-09-03T04:41:55;5.37;;;3.33;;
8462;SDS011;4268;52.506;13.462;2022-09-03T04:44:20;3.70;;;3.40;;
8462;SDS011;4268;52.506;13.462;2022-09-03T04:46:46;3.33;;;3.13;;
8462;SDS011;4268;52.506;13.462;2022-09-03T04:49:12;3.10;;;2.90;;
8462;SDS011;4268;52.506;13.462;2022-09-03T04:51:37;3.37;;;3.17;;
8462;SDS011;4268;52.506;13.462;2022-09-03T04:54:03;3.50;;;3.20;;
8462;SDS011;4268;52.506;13.462;2022-09-03T04:56:29;3.60;;;3.30;;
8462;SDS011;4268;52.506;13.462;2022-09-03T04:59:00;3.40;;;3.20;;
8462;SDS011;4268;52.506;13.462;2022-09-03T05:01:29;3.57;;;3.27;;
8462;SDS011;4268;52.506;13.462;2022-09-03T05:03:56;3.50;;;3.20;;
8462;SDS011;4268;52.506;13.462;2022-09-03T05:06:22;3.53;;;3.27;;
8462;SDS011;4268;52.506;13.462;2022-09-03T05:08:49;3.40;;;3.20;;
8462;SDS011;4268;52.506;13.462;2022-09-03T05:11:17;3.83;;;3.40;;
8462;SDS011;4268;52.506;13.462;2022-09-03T05:13:45;3.40;;;3.20;;
8462;SDS011;4268;52.506;13.462;2022-09-03T05:16:13;3.40;;;3.20;;
8462;SDS011;4268;52.506;13.462;2022-09-03T05:18:39;4.47;;;3.43;;
8462;SDS011;4268;52.506;13.462;2022-09-03T05:21:10;4.27;;;3.90;;
8462;SDS011;4268;52.506;13.462;2022-09-03T05:23:41;4.30;;;3.90;;
8462;SDS011;4268;52.506;13.462;2022-09-03T05:26:09;4.47;;;4.17;;
8462;SDS011;4268;52.506;13.462;2022-09-03T05:28:37;4.33;;;4.03;;
8462;SDS011;4268;52.506;13.462;2022-09-03T05:31:05;4.83;;;4.43;;
8462;SDS011;4268;52.506;13.462;2022-09-03T05:33:36;4.70;;;4.40;;
8462;SDS011;4268;52.506;13.462;2022-09-03T05:36:04;5.20;;;4.70;;
8462;SDS011;4268;52.506;13.462;2022-09-03T05:38:34;5.73;;;5.33;;
8462;SDS011;4268;52.506;13.462;2022-09-03T05:41:01;5.43;;;4.83;;
8462;SDS011;4268;52.506;13.462;2022-09-03T05:43:29;5.33;;;4.97;;
8462;SDS011;4268;52.506;13.462;2022-09-03T05:46:05;5.07;;;4.67;;
8462;SDS011;4268;52.506;13.462;2022-09-03T05:48:37;5.40;;;4.93;;
8462;SDS011;4268;52.506;13.462;2022-09-03T05:51:13;5.33;;;4.93;;
8462;SDS011;4268;52.506;13.462;2022-09-03T05:53:40;5.80;;;5.20;;
8462;SDS011;4268;52.506;13.462;2022-09-03T05:56:09;5.40;;;4.90;;
8462;SDS011;4268;52.506;13.462;2022-09-03T05:58:37;5.27;;;4.97;;
8462;SDS011;4268;52.506;13.462;2022-09-03T06:01:11;4.97;;;4.67;;
8462;SDS011;4268;52.506;13.462;2022-09-03T06:03:38;5.03;;;4.70;;
8462;SDS011;4268;52.506;13.462;2022-09-03T06:06:04;5.00;;;4.70;;
8462;SDS011;4268;52.506;13.462;2022-09-03T06:08:31;5.30;;;3.30;;
8462;SDS011;4268;52.506;13.462;2022-09-03T06:10:57;3.77;;;3.20;;
8462;SDS011;4268;52.506;13.462;2022-09-03T06:13:23;3.27;;;3.07;;
8462;SDS011;4268;52.506;13.462;2022-09-03T06:15:49;3.50;;;3.20;;
8462;SDS011;4268;52.506;13.462;2022-09-03T06:18:14;3.07;;;2.87;;
8462;SDS011;4268;52.506;13.462;2022-09-03T06:20:40;2.80;;;2.60;;
8462;SDS011;4268;52.506;13.462;2022-09-03T06:23:05;3.33;;;3.03;;
8462;SDS011;4268;52.506;13.462;2022-09-03T06:25:31;3.20;;;2.90;;
8462;SDS011;4268;52.506;13.462;2022-09-03T06:27:57;3.10;;;2.90;;
8462;SDS011;4268;52.506;13.462;2022-09-03T06:30:23;4.33;;;3.20;;
8462;SDS011;4268;52.506;13.462;2022-09-03T06:32:50;2.87;;;2.60;;
8462;SDS011;4268;52.506;13.462;2022-09-03T06:35:16;3.23;;;2.80;;
8462;SDS011;4268;52.506;13.462;2022-09-03T06:37:42;3.53;;;3.00;;
8462;SDS011;4268;52.506;13.462;2022-09-03T06:40:08;2.63;;;2.53;;
8462;SDS011;4268;52.506;13.462;2022-09-03T06:42:40;2.93;;;2.73;;
8462;SDS011;4268;52.506;13.462;2022-09-03T06:45:09;3.00;;;2.80;;
8462;SDS011;4268;52.506;13.462;2022-09-03T06:47:35;2.90;;;2.67;;
8462;SDS011;4268;52.506;13.462;2022-09-03T06:50:01;3.10;;;2.90;;
8462;SDS011;4268;52.506;13.462;2022-09-03T06:52:27;3.40;;;3.20;;
8462;SDS011;4268;52.506;13.462;2022-09-03T06:54:53;7.37;;;4.27;;
8462;SDS011;4268;52.506;13.462;2022-09-03T06:57:19;3.97;;;2.60;;
8462;SDS011;4268;52.506;13.462;2022-09-03T06:59:44;2.90;;;2.70;;
8462;SDS011;4268;52.506;13.462;2022-09-03T07:02:10;2.40;;;2.20;;
8462;SDS011;4268;52.506;13.462;2022-09-03T07:04:35;2.57;;;2.37;;
8462;SDS011;4268;52.506;13.462;2022-09-03T07:07:01;2.60;;;2.40;;
8462;SDS011;4268;52.506;13.462;2022-09-03T07:09:27;2.58;;;2.38;;
8462;SDS011;4268;52.506;13.462;2022-09-03T07:11:53;3.58;;;3.28;;
8462;SDS011;4268;52.506;13.462;2022-09-03T07:14:19;3.40;;;2.53;;
8462;SDS011;4268;52.506;13.462;2022-09-03T07:16:49;2.55;;;2.20;;
8462;SDS011;4268;52.506;13.462;2022-09-03T07:19:15;4.60;;;2.40;;
8462;SDS011;4268;52.506;13.462;2022-09-03T07:21:41;3.00;;;2.80;;
8462;SDS011;4268;52.506;13.462;2022-09-03T07:24:07;2.83;;;2.50;;
8462;SDS011;4268;52.506;13.462;2022-09-03T07:26:35;2.70;;;2.50;;
8462;SDS011;4268;52.506;13.462;2022-09-03T07:29:03;2.77;;;2.50;;
8462;SDS011;4268;52.506;13.462;2022-09-03T07:31:32;2.43;;;2.33;;
8462;SDS011;4268;52.506;13.462;2022-09-03T07:34:04;2.97;;;2.60;;
8462;SDS011;4268;52.506;13.462;2022-09-03T07:36:34;3.20;;;2.83;;
8462;SDS011;4268;52.506;13.462;2022-09-03T07:39:08;3.33;;;3.07;;
8462;SDS011;4268;52.506;13.462;2022-09-03T07:41:35;2.80;;;2.60;;
8462;SDS011;4268;52.506;13.462;2022-09-03T07:44:02;3.53;;;2.70;;
8462;SDS011;4268;52.506;13.462;2022-09-03T07:46:29;3.17;;;2.87;;
8462;SDS011;4268;52.506;13.462;2022-09-03T07:48:57;2.80;;;2.60;;
8462;SDS011;4268;52.506;13.462;2022-09-03T07:51:26;3.30;;;3.00;;
8462;SDS011;4268;52.506;13.462;2022-09-03T07:53:54;4.40;;;2.80;;
8462;SDS011;4268;52.506;13.462;2022-09-03T07:56:23;5.13;;;2.57;;
8462;SDS011;4268;52.506;13.462;2022-09-03T07:58:49;2.97;;;2.50;;
8462;SDS011;4268;52.506;13.462;2022-09-03T08:01:16;2.83;;;2.40;;
8462;SDS011;4268;52.506;13.462;2022-09-03T08:03:44;2.77;;;2.30;;
8462;SDS011;4268;52.506;13.462;2022-09-03T08:06:12;3.00;;;2.80;;
8462;SDS011;4268;52.506;13.462;2022-09-03T08:08:38;2.83;;;2.50;;
8462;SDS011;4268;52.506;13.462;2022-09-03T08:11:11;3.37;;;3.07;;
8462;SDS011;4268;52.506;13.462;2022-09-03T08:13:42;2.40;;;2.30;;
8462;SDS011;4268;52.506;13.462;2022-09-03T08:16:13;2.87;;;2.60;;
8462;SDS011;4268;52.506;13.462;2022-09-03T08:18:40;2.70;;;2.50;;
8462;SDS011;4268;52.506;13.462;2022-09-03T08:21:07;3.07;;;2.43;;
8462;SDS011;4268;52.506;13.462;2022-09-03T08:23:37;3.17;;;2.60;;
8462;SDS011;4268;52.506;13.462;2022-09-03T08:26:04;2.80;;;2.60;;
8462;SDS011;4268;52.506;13.462;2022-09-03T08:28:30;2.93;;;2.63;;
8462;SDS011;4268;52.506;13.462;2022-09-03T08:30:58;3.30;;;3.10;;
8462;SDS011;4268;52.506;13.462;2022-09-03T08:33:30;2.83;;;2.63;;
8462;SDS011;4268;52.506;13.462;2022-09-03T08:36:03;2.97;;;2.77;;
8462;SDS011;4268;52.506;13.462;2022-09-03T08:38:42;2.70;;;2.50;;
8462;SDS011;4268;52.506;13.462;2022-09-03T08:41:13;2.70;;;2.50;;
8462;SDS011;4268;52.506;13.462;2022-09-03T08:44:27;2.63;;;2.50;;
8462;SDS011;4268;52.506;13.462;2022-09-03T08:46:32;4.60;;;2.67;;
8462;SDS011;4268;52.506;13.462;2022-09-03T08:49:08;3.07;;;2.77;;
8462;SDS011;4268;52.506;13.462;2022-09-03T08:51:37;4.43;;;2.80;;
8462;SDS011;4268;52.506;13.462;2022-09-03T08:54:04;3.13;;;2.60;;
8462;SDS011;4268;52.506;13.462;2022-09-03T08:56:33;2.87;;;2.67;;
8462;SDS011;4268;52.506;13.462;2022-09-03T08:59:03;2.93;;;2.50;;
8462;SDS011;4268;52.506;13.462;2022-09-03T09:04:01;4.70;;;2.70;;
8462;SDS011;4268;52.506;13.462;2022-09-03T09:09:08;3.73;;;2.60;;
8462;SDS011;4268;52.506;13.462;2022-09-03T09:11:45;2.80;;;2.60;;
8462;SDS011;4268;52.506;13.462;2022-09-03T09:14:38;3.50;;;2.70;;
8462;SDS011;4268;52.506;13.462;2022-09-03T09:20:12;3.20;;;3.00;;
8462;SDS011;4268;52.506;13.462;2022-09-03T09:22:53;3.70;;;2.80;;
8462;SDS011;4268;52.506;13.462;2022-09-03T09:25:23;2.70;;;2.50;;
8462;SDS011;4268;52.506;13.462;2022-09-03T09:27:56;2.50;;;2.40;;
8462;SDS011;4268;52.506;13.462;2022-09-03T09:30:34;2.60;;;2.40;;
8462;SDS011;4268;52.506;13.462;2022-09-03T09:33:01;2.87;;;2.43;;
8462;SDS011;4268;52.506;13.462;2022-09-03T09:35:27;2.97;;;2.80;;
8462;SDS011;4268;52.506;13.462;2022-09-03T09:37:56;3.47;;;2.63;;
8462;SDS011;4268;52.506;13.462;2022-09-03T09:40:28;2.70;;;2.50;;
8462;SDS011;4268;52.506;13.462;2022-09-03T09:43:06;2.60;;;2.50;;
8462;SDS011;4268;52.506;13.462;2022-09-03T09:45:44;3.50;;;2.33;;
8462;SDS011;4268;52.506;13.462;2022-09-03T09:48:17;2.70;;;2.50;;
8462;SDS011;4268;52.506;13.462;2022-09-03T09:53:36;4.10;;;2.30;;
8462;SDS011;4268;52.506;13.462;2022-09-03T09:56:03;2.17;;;1.97;;
8462;SDS011;4268;52.506;13.462;2022-09-03T09:58:30;2.20;;;1.97;;
8462;SDS011;4268;52.506;13.462;2022-09-03T10:01:10;2.57;;;2.30;;
8462;SDS011;4268;52.506;13.462;2022-09-03T10:03:54;2.20;;;2.00;;
8462;SDS011;4268;52.506;13.462;2022-09-03T10:06:22;2.40;;;2.20;;
8462;SDS011;4268;52.506;13.462;2022-09-03T10:09:11;2.40;;;2.20;;
8462;SDS011;4268;52.506;13.462;2022-09-03T10:11:40;3.47;;;2.30;;
8462;SDS011;4268;52.506;13.462;2022-09-03T10:14:11;3.47;;;2.10;;
8462;SDS011;4268;52.506;13.462;2022-09-03T10:16:42;2.17;;;2.07;;
8462;SDS011;4268;52.506;13.462;2022-09-03T10:19:22;2.50;;;2.40;;
8462;SDS011;4268;52.506;13.462;2022-09-03T10:22:03;5.13;;;3.20;;
8462;SDS011;4268;52.506;13.462;2022-09-03T10:27:26;2.73;;;2.30;;
8462;SDS011;4268;52.506;13.462;2022-09-03T10:29:53;2.80;;;2.37;;
8462;SDS011;4268;52.506;13.462;2022-09-03T10:46:06;2.40;;;2.30;;
8462;SDS011;4268;52.506;13.462;2022-09-03T10:51:23;2.80;;;2.33;;
8462;SDS011;4268;52.506;13.462;2022-09-03T10:54:14;3.23;;;2.33;;
8462;SDS011;4268;52.506;13.462;2022-09-03T10:59:58;3.37;;;2.40;;
8462;SDS011;4268;52.506;13.462;2022-09-03T11:05:40;2.80;;;2.60;;
8462;SDS011;4268;52.506;13.462;2022-09-03T11:08:22;3.53;;;2.30;;
8462;SDS011;4268;52.506;13.462;2022-09-03T11:10:55;2.30;;;2.20;;
8462;SDS011;4268;52.506;13.462;2022-09-03T11:13:45;2.57;;;2.37;;
8462;SDS011;4268;52.506;13.462;2022-09-03T11:16:18;2.70;;;2.50;;
8462;SDS011;4268;52.506;13.462;2022-09-03T11:18:50;2.40;;;2.20;;
8462;SDS011;4268;52.506;13.462;2022-09-03T11:21:27;2.97;;;2.30;;
8462;SDS011;4268;52.506;13.462;2022-09-03T11:26:42;2.97;;;2.47;;
8462;SDS011;4268;52.506;13.462;2022-09-03T11:31:51;2.40;;;2.20;;
8462;SDS011;4268;52.506;13.462;2022-09-03T11:36:50;2.60;;;2.40;;
8462;SDS011;4268;52.506;13.462;2022-09-03T11:39:21;2.30;;;2.20;;
8462;SDS011;4268;52.506;13.462;2022-09-03T11:42:04;2.93;;;2.53;;
8462;SDS011;4268;52.506;13.462;2022-09-03T11:44:35;2.57;;;2.30;;
8462;SDS011;4268;52.506;13.462;2022-09-03T11:47:11;2.67;;;2.47;;
8462;SDS011;4268;52.506;13.462;2022-09-03T11:49:43;3.33;;;2.40;;
8462;SDS011;4268;52.506;13.462;2022-09-03T11:52:27;4.03;;;2.37;;
8462;SDS011;4268;52.506;13.462;2022-09-03T11:54:56;3.27;;;2.20;;
8462;SDS011;4268;52.506;13.462;2022-09-03T11:57:23;3.63;;;2.30;;
8462;SDS011;4268;52.506;13.462;2022-09-03T11:59:53;2.67;;;2.47;;
8462;SDS011;4268;52.506;13.462;2022-09-03T12:02:31;2.80;;;2.50;;
8462;SDS011;4268;52.506;13.462;2022-09-03T12:11:23;4.33;;;2.50;;
8462;SDS011;4268;52.506;13.462;2022-09-03T12:14:01;2.97;;;2.77;;
8462;SDS011;4268;52.506;13.462;2022-09-03T12:16:59;2.27;;;2.17;;
8462;SDS011;4268;52.506;13.462;2022-09-03T12:19:36;3.80;;;2.57;;
8462;SDS011;4268;52.506;13.462;2022-09-03T12:22:16;2.60;;;2.40;;
8462;SDS011;4268;52.506;13.462;2022-09-03T12:24:42;2.50;;;2.30;;
8462;SDS011;4268;52.506;13.462;2022-09-03T12:27:21;3.53;;;2.67;;
8462;SDS011;4268;52.506;13.462;2022-09-03T12:29:49;2.87;;;2.67;;
8462;SDS011;4268;52.506;13.462;2022-09-03T12:32:24;2.40;;;2.20;;
8462;SDS011;4268;52.506;13.462;2022-09-03T12:35:15;2.53;;;2.33;;
8462;SDS011;4268;52.506;13.462;2022-09-03T12:37:43;3.57;;;2.50;;
8462;SDS011;4268;52.506;13.462;2022-09-03T12:40:19;2.67;;;2.30;;
8462;SDS011;4268;52.506;13.462;2022-09-03T12:42:50;3.07;;;2.87;;
8462;SDS011;4268;52.506;13.462;2022-09-03T12:45:25;3.53;;;2.50;;
8462;SDS011;4268;52.506;13.462;2022-09-03T12:47:51;2.83;;;2.63;;
8462;SDS011;4268;52.506;13.462;2022-09-03T12:50:21;2.83;;;2.63;;
8462;SDS011;4268;52.506;13.462;2022-09-03T12:52:55;2.77;;;2.53;;
8462;SDS011;4268;52.506;13.462;2022-09-03T13:00:43;3.00;;;2.80;;
8462;SDS011;4268;52.506;13.462;2022-09-03T13:03:38;3.20;;;2.90;;
8462;SDS011;4268;52.506;13.462;2022-09-03T13:06:11;3.13;;;2.40;;
8462;SDS011;4268;52.506;13.462;2022-09-03T13:08:50;2.67;;;2.47;;
8462;SDS011;4268;52.506;13.462;2022-09-03T13:11:25;2.40;;;2.30;;
8462;SDS011;4268;52.506;13.462;2022-09-03T13:13:54;3.03;;;2.73;;
8462;SDS011;4268;52.506;13.462;2022-09-03T13:17:08;3.47;;;3.27;;
8462;SDS011;4268;52.506;13.462;2022-09-03T13:19:25;2.63;;;2.43;;
8462;SDS011;4268;52.506;13.462;2022-09-03T13:22:18;5.70;;;2.90;;
8462;SDS011;4268;52.506;13.462;2022-09-03T13:27:35;2.70;;;2.50;;
8462;SDS011;4268;52.506;13.462;2022-09-03T13:30:14;3.50;;;2.50;;
8462;SDS011;4268;52.506;13.462;2022-09-03T13:32:51;3.93;;;2.50;;
8462;SDS011;4268;52.506;13.462;2022-09-03T13:41:45;3.17;;;2.87;;
8462;SDS011;4268;52.506;13.462;2022-09-03T13:44:21;3.30;;;2.80;;
8462;SDS011;4268;52.506;13.462;2022-09-03T13:58:00;4.43;;;2.07;;
8462;SDS011;4268;52.506;13.462;2022-09-03T14:00:42;3.07;;;2.40;;
8462;SDS011;4268;52.506;13.462;2022-09-03T14:03:24;2.50;;;2.30;;
8462;SDS011;4268;52.506;13.462;2022-09-03T14:12:17;2.50;;;2.30;;
8462;SDS011;4268;52.506;13.462;2022-09-03T14:14:55;2.20;;;2.00;;
8462;SDS011;4268;52.506;13.462;2022-09-03T14:20:38;2.20;;;2.10;;
8462;SDS011;4268;52.506;13.462;2022-09-03T14:23:33;2.37;;;2.10;;
8462;SDS011;4268;52.506;13.462;2022-09-03T14:26:14;2.20;;;2.07;;
8462;SDS011;4268;52.506;13.462;2022-09-03T14:31:58;2.93;;;1.90;;
8462;SDS011;4268;52.506;13.462;2022-09-03T14:37:40;2.30;;;2.10;;
8462;SDS011;4268;52.506;13.462;2022-09-03T14:51:26;2.43;;;1.80;;
8462;SDS011;4268;52.506;13.462;2022-09-03T15:02:29;2.63;;;2.40;;
8462;SDS011;4268;52.506;13.462;2022-09-03T15:05:12;2.37;;;2.23;;
8462;SDS011;4268;52.506;13.462;2022-09-03T15:10:45;3.23;;;2.50;;
8462;SDS011;4268;52.506;13.462;2022-09-03T15:16:21;3.47;;;3.17;;
8462;SDS011;4268;52.506;13.462;2022-09-03T15:18:55;3.43;;;2.60;;
8462;SDS011;4268;52.506;13.462;2022-09-03T15:21:56;4.23;;;2.90;;
8462;SDS011;4268;52.506;13.462;2022-09-03T15:32:26;2.80;;;2.50;;
8462;SDS011;4268;52.506;13.462;2022-09-03T15:35:07;2.83;;;2.63;;
8462;SDS011;4268;52.506;13.462;2022-09-03T15:37:44;3.13;;;2.63;;
8462;SDS011;4268;52.506;13.462;2022-09-03T15:42:41;2.70;;;2.33;;
8462;SDS011;4268;52.506;13.462;2022-09-03T15:45:15;2.73;;;2.53;;
8462;SDS011;4268;52.506;13.462;2022-09-03T15:47:52;4.70;;;2.70;;
8462;SDS011;4268;52.506;13.462;2022-09-03T15:50:24;2.97;;;2.77;;
8462;SDS011;4268;52.506;13.462;2022-09-03T15:56:33;2.90;;;2.70;;
8462;SDS011;4268;52.506;13.462;2022-09-03T15:59:18;3.23;;;2.70;;
8462;SDS011;4268;52.506;13.462;2022-09-03T16:04:29;3.10;;;2.90;;
8462;SDS011;4268;52.506;13.462;2022-09-03T16:15:20;2.97;;;2.77;;
8462;SDS011;4268;52.506;13.462;2022-09-03T16:17:56;3.73;;;2.80;;
8462;SDS011;4268;52.506;13.462;2022-09-03T16:23:31;3.37;;;3.07;;
8462;SDS011;4268;52.506;13.462;2022-09-03T16:26:02;3.33;;;3.00;;
8462;SDS011;4268;52.506;13.462;2022-09-03T16:28:35;3.50;;;3.20;;
8462;SDS011;4268;52.506;13.462;2022-09-03T16:31:10;3.40;;;3.20;;
8462;SDS011;4268;52.506;13.462;2022-09-03T16:36:40;3.37;;;3.10;;
8462;SDS011;4268;52.506;13.462;2022-09-03T16:39:29;3.40;;;3.20;;
8462;SDS011;4268;52.506;13.462;2022-09-03T16:42:26;3.60;;;3.30;;
8462;SDS011;4268;52.506;13.462;2022-09-03T16:45:16;4.80;;;3.40;;
8462;SDS011;4268;52.506;13.462;2022-09-03T16:51:04;3.23;;;2.93;;
8462;SDS011;4268;52.506;13.462;2022-09-03T16:59:46;3.47;;;3.17;;
8462;SDS011;4268;52.506;13.462;2022-09-03T17:05:35;3.73;;;3.43;;
8462;SDS011;4268;52.506;13.462;2022-09-03T17:11:17;3.90;;;3.30;;
8462;SDS011;4268;52.506;13.462;2022-09-03T17:19:10;4.47;;;3.57;;
8462;SDS011;4268;52.506;13.462;2022-09-03T17:22:03;3.43;;;3.23;;
8462;SDS011;4268;52.506;13.462;2022-09-03T17:24:52;3.90;;;3.50;;
8462;SDS011;4268;52.506;13.462;2022-09-03T17:30:27;5.20;;;3.30;;
8462;SDS011;4268;52.506;13.462;2022-09-03T17:33:24;3.43;;;3.17;;
8462;SDS011;4268;52.506;13.462;2022-09-03T17:36:08;3.23;;;2.93;;
8462;SDS011;4268;52.506;13.462;2022-09-03T17:41:51;3.40;;;3.10;;
8462;SDS011;4268;52.506;13.462;2022-09-03T17:49:51;3.63;;;3.10;;
8462;SDS011;4268;52.506;13.462;2022-09-03T17:52:29;6.93;;;4.00;;
8462;SDS011;4268;52.506;13.462;2022-09-03T17:54:59;4.07;;;3.77;;
8462;SDS011;4268;52.506;13.462;2022-09-03T17:57:45;5.50;;;3.70;;
8462;SDS011;4268;52.506;13.462;2022-09-03T18:00:21;4.03;;;3.63;;
8462;SDS011;4268;52.506;13.462;2022-09-03T18:02:59;4.10;;;3.70;;
8462;SDS011;4268;52.506;13.462;2022-09-03T18:05:42;3.90;;;3.50;;
8462;SDS011;4268;52.506;13.462;2022-09-03T18:11:26;4.10;;;3.80;;
8462;SDS011;4268;52.506;13.462;2022-09-03T18:17:02;4.93;;;4.40;;
8462;SDS011;4268;52.506;13.462;2022-09-03T18:22:52;3.97;;;3.60;;
8462;SDS011;4268;52.506;13.462;2022-09-03T18:26:02;3.97;;;3.30;;
8462;SDS011;4268;52.506;13.462;2022-09-03T18:28:54;4.13;;;3.73;;
8462;SDS011;4268;52.506;13.462;2022-09-03T18:31:47;3.80;;;3.50;;
8462;SDS011;4268;52.506;13.462;2022-09-03T18:34:32;3.97;;;3.57;;
8462;SDS011;4268;52.506;13.462;2022-09-03T18:37:23;5.00;;;3.77;;
8462;SDS011;4268;52.506;13.462;2022-09-03T18:40:10;3.80;;;3.50;;
8462;SDS011;4268;52.506;13.462;2022-09-03T18:46:20;4.50;;;3.63;;
8462;SDS011;4268;52.506;13.462;2022-09-03T18:49:26;4.37;;;3.97;;
8462;SDS011;4268;52.506;13.462;2022-09-03T18:52:31;4.30;;;3.90;;
8462;SDS011;4268;52.506;13.462;2022-09-03T18:58:35;4.77;;;4.47;;
8462;SDS011;4268;52.506;13.462;2022-09-03T19:01:33;4.30;;;3.90;;
8462;SDS011;4268;52.506;13.462;2022-09-03T19:04:33;3.90;;;3.60;;
8462;SDS011;4268;52.506;13.462;2022-09-03T19:14:11;4.70;;;3.60;;
8462;SDS011;4268;52.506;13.462;2022-09-03T19:17:14;4.00;;;3.60;;
8462;SDS011;4268;52.506;13.462;2022-09-03T19:20:08;4.90;;;3.40;;
8462;SDS011;4268;52.506;13.462;2022-09-03T19:23:03;4.10;;;3.70;;
8462;SDS011;4268;52.506;13.462;2022-09-03T19:25:47;3.80;;;3.30;;
8462;SDS011;4268;52.506;13.462;2022-09-03T19:28:33;4.17;;;3.70;;
8462;SDS011;4268;52.506;13.462;2022-09-03T19:31:39;3.70;;;3.40;;
8462;SDS011;4268;52.506;13.462;2022-09-03T19:41:04;5.53;;;3.40;;
8462;SDS011;4268;52.506;13.462;2022-09-03T19:44:15;5.67;;;3.63;;
8462;SDS011;4268;52.506;13.462;2022-09-03T19:47:19;6.40;;;3.73;;
8462;SDS011;4268;52.506;13.462;2022-09-03T19:50:21;3.87;;;3.57;;